Terminal Aerodrome Forecast
Issued by NWS Shreveport, LA

Home | Current Version | Previous Version | Text Only | Print | Product List | Glossary On
Versions: 1 2 3 4 5 6 7 8 9 10 11 12 13 14 15 16 17 18 19 20
000
FTUS44 KSHV 281700
TAFTXK
TAF
KTXK 281725Z 2818/0118 08008KT P6SM OVC070
     FM010200 07005KT P6SM OVC035
     FM010600 06005KT 5SM -RA BR OVC020
     FM011100 05004KT 3SM RA BR OVC008=

USA.gov is the U.S. government's official web portal to all federal, state and local government web resources and services.